Latest Coastal Weather Observations for Redcliffe

IDQ60701

Issued at 8:12 pm EST Saturday 13 August 2022 (issued every 10 minutes, with the page automatically refreshed every 10 minutes)

About coastal observations | Map of coastal stations | Coastal observations for QLD | Marine services | Other Formats
Station Details ID: 040958 Name: REDCLIFFE Lat: -27.22 Lon: 153.09 Height: 12.6 m
Data from the previous 72 hours. | See also: Recent months at Redcliffe
Date/Time
EST
Wind Sea
Height
m
Swell Vis
km
Cloud Weather Temp
°C
Press
MSL
hPa
Rain since
9am
mm
Dir  Spd
kts
Gust
kts
Height
m
Period
s
Dir
13/08:00pm NNW 5 6 - - - - - - - 13.8 1016.0 5.0
13/07:30pm WNW 4 5 - - - - - - - 14.2 1015.9 5.0
13/07:00pm NNW 6 7 - - - - - - - 14.4 1015.8 5.0
13/06:30pm NNW 5 6 - - - - - - - 14.7 1015.5 5.0
13/06:00pm NNW 5 6 - - - - - - - 14.9 1015.5 5.0
13/05:30pm NW 5 6 - - - - - - - 15.3 1015.4 5.0
13/05:00pm NNW 4 6 - - - - - - - 15.2 1015.2 5.0
13/04:30pm NNW 5 7 - - - - - - - 15.2 1014.9 5.0
13/04:00pm NW 5 6 - - - - - - - 15.2 1015.0 5.0
13/03:30pm NNW 3 5 - - - - - - - 15.2 1014.8 4.8
13/03:00pm NNW 5 6 - - - - - - Rain 15.3 1015.1 4.2
13/02:30pm NNW 5 7 - - - - - - - 15.2 1015.6 3.0
13/02:00pm WNW 5 7 - - - - - - - 15.8 1015.8 1.8
13/01:30pm NW 4 6 - - - - - - - 15.9 1015.8 1.4
13/01:00pm SW 5 6 - - - - - - - 16.2 1015.9 0.6
13/12:30pm SW 5 6 - - - - - - - 16.4 1016.2 0.4
13/12:00pm SW 5 7 - - - - - - Recent precip. 16.3 1016.6 0.2
13/11:30am WNW 8 10 - - - - - - - 16.9 1017.1 0.0
13/11:00am W 6 9 - - - - - - - 16.9 1017.0 0.0
13/10:30am WNW 5 6 - - - - - - - 17.2 1017.6 0.0
13/10:00am WSW 6 9 - - - - - - - 17.0 1017.7 0.0
13/09:30am W 5 7 - - - - - - - 17.2 1017.7 0.0
13/09:00am WNW 5 7 - - - - - - - 17.0 1017.4 0.6
13/08:30am WNW 9 11 - - - - - - - 16.9 1017.6 0.6
13/08:00am NNW 8 11 - - - - - - - 17.2 1016.8 0.6
13/07:30am N 9 12 - - - - - - - 16.8 1016.4 0.6
13/07:00am N 9 10 - - - - - - - 16.8 1016.6 0.6
13/06:30am N 7 8 - - - - - - - 16.5 1016.6 0.6
13/06:00am N 6 7 - - - - - - - 16.3 1016.5 0.6
13/05:30am NNE 6 7 - - - - - - - 16.1 1016.8 0.6
13/05:00am WNW 4 5 - - - - - - - 15.8 1016.6 0.6
13/04:30am N 6 7 - - - - - - - 15.7 1016.5 0.6
13/04:00am NNW 5 6 - - - - - - - 15.6 1016.8 0.6
13/03:30am WNW 5 5 - - - - - - - 15.7 1016.7 0.6
13/03:00am NW 5 7 - - - - - - - 16.0 1017.0 0.6
13/02:30am N 7 8 - - - - - - - 16.2 1017.0 0.6
13/02:00am N 6 7 - - - - - - - 16.1 1017.5 0.6
13/01:30am NW 6 8 - - - - - - - 15.9 1018.2 0.6
13/01:00am NW 4 6 - - - - - - - 15.5 1018.1 0.6
13/12:30am WNW 4 5 - - - - - - - 15.4 1018.4 0.6
13/12:00am NW 4 6 - - - - - - - 15.7 1018.9 0.6
 
Date/Time
EST
Wind Sea
Height
m
Swell Vis
km
Cloud Weather Temp
°C
Press
MSL
hPa
Rain since
9am
mm
Dir  Spd
kts
Gust
kts
Height
m
Period
s
Dir
12/11:30pm NNW 4 6 - - - - - - - 15.8 1018.7 0.6
12/11:00pm NW 5 7 - - - - - - - 16.0 1019.3 0.6
12/10:30pm NW 5 6 - - - - - - - 16.0 1019.2 0.6
12/10:00pm N 4 6 - - - - - - - 16.0 1019.4 0.6
12/09:30pm NNE 6 8 - - - - - - - 15.9 1019.7 0.6
12/09:00pm N 8 10 - - - - - - Rain 15.9 1020.2 0.6
12/08:30pm NNW 6 8 - - - - - - - 16.1 1020.5 0.2
12/08:00pm NW 5 6 - - - - - - - 16.1 1020.3 0.2
12/07:30pm NW 5 8 - - - - - - - 16.0 1020.1 0.2
12/07:00pm NW 5 8 - - - - - - - 16.0 1020.2 0.2
12/06:30pm NW 5 6 - - - - - - - 16.2 1020.0 0.2
12/06:00pm N 2 5 - - - - - - Recent precip. 16.2 1019.6 0.2
12/05:30pm N 4 5 - - - - - - - 16.4 1019.8 0.2
12/05:00pm NE 4 6 - - - - - - - 16.9 1018.9 0.0
12/04:30pm NNE 4 6 - - - - - - - 17.1 1019.3 0.0
12/04:00pm NNE 5 6 - - - - - - - 17.3 1018.7 0.0
12/03:30pm N 8 11 - - - - - - - 17.0 1018.9 0.0
12/03:00pm NNE 6 7 - - - - - - - 17.5 1019.2 0.0
12/02:30pm NNE 5 6 - - - - - - - 17.8 1019.2 0.0
12/02:00pm NE 6 7 - - - - - - - 17.9 1019.1 0.0
12/01:30pm NE 6 6 - - - - - - - 17.6 1019.5 0.0
12/01:00pm ENE 5 6 - - - - - - - 17.5 1020.1 0.0
12/12:30pm ENE 6 7 - - - - - - - 17.4 1020.5 0.0
12/12:00pm ENE 7 7 - - - - - - - 18.0 1021.1 0.0
12/11:30am N 1 5 - - - - - - - 17.4 1021.8 0.0
12/11:00am N 4 6 - - - - - - - 16.6 1022.5 0.0
12/10:30am NW 4 5 - - - - - - - 16.2 1022.7 0.0
12/10:00am W 4 5 - - - - - - - 15.9 1022.9 0.0
12/09:30am WSW 3 4 - - - - - - - 15.5 1023.3 0.0
12/09:00am WNW 4 5 - - - - - - - 14.9 1023.5 0.0
12/08:30am WSW 6 7 - - - - - - - 14.5 1023.1 0.0
12/08:00am WSW 6 7 - - - - - - - 14.2 1022.9 0.0
12/07:30am WSW 6 7 - - - - - - - 13.8 1022.5 0.0
12/07:00am WSW 6 8 - - - - - - - 13.5 1022.2 0.0
12/06:30am SW 5 6 - - - - - - - 13.3 1022.1 0.0
12/06:00am SSW 7 8 - - - - - - - 13.5 1021.7 0.0
12/05:30am S 8 10 - - - - - - - 13.6 1021.8 0.0
12/05:00am S 6 8 - - - - - - - 13.6 1021.6 0.0
12/04:30am SSW 5 7 - - - - - - - 13.5 1021.9 0.0
12/04:00am SSW 4 5 - - - - - - - 13.6 1021.9 0.0
12/03:30am SSW 6 7 - - - - - - - 14.0 1022.0 0.0
12/03:00am S 7 9 - - - - - - - 14.0 1022.3 0.0
12/02:30am SSW 5 8 - - - - - - - 14.5 1022.7 0.0
12/02:00am SW 6 8 - - - - - - - 14.5 1022.9 0.0
12/01:30am SSW 5 7 - - - - - - - 14.4 1023.4 0.0
12/01:00am WSW 7 8 - - - - - - - 14.3 1023.5 0.0
12/12:30am WNW 7 8 - - - - - - - 14.7 1023.5 0.0
12/12:00am WNW 4 5 - - - - - - - 14.6 1023.5 0.0
 
Date/Time
EST
Wind Sea
Height
m
Swell Vis
km
Cloud Weather Temp
°C
Press
MSL
hPa
Rain since
9am
mm
Dir  Spd
kts
Gust
kts
Height
m
Period
s
Dir
11/11:30pm ESE 4 6 - - - - - - - 14.7 1023.5 0.0
11/11:00pm E 7 9 - - - - - - - 15.0 1023.5 0.0
11/10:30pm E 8 9 - - - - - - - 15.0 1023.7 0.0
11/10:00pm E 5 7 - - - - - - - 15.0 1023.9 0.0
11/09:30pm E 5 6 - - - - - - - 15.2 1024.2 0.0
11/09:00pm E 8 9 - - - - - - - 15.7 1024.2 0.0
11/08:30pm E 8 11 - - - - - - - 15.9 1024.3 0.0
11/08:00pm ESE 7 8 - - - - - - - 15.9 1023.9 0.0
11/07:30pm ESE 9 10 - - - - - - - 16.1 1023.5 0.0
11/07:00pm ESE 9 11 - - - - - - - 16.4 1023.4 0.0
11/06:30pm SE 7 9 - - - - - - - 16.6 1023.3 0.0
11/06:00pm ESE 10 11 - - - - - - - 16.9 1022.8 0.0
11/05:30pm SE 8 10 - - - - - - - 17.2 1022.6 0.0
11/05:00pm ESE 10 12 - - - - - - - 17.5 1022.6 0.0
11/04:30pm ESE 9 11 - - - - - - - 17.6 1022.4 0.0
11/04:00pm ESE 8 9 - - - - - - - 17.8 1022.8 0.0
11/03:30pm ESE 13 16 - - - - - - - 17.5 1021.2 0.0
11/03:00pm ESE 11 13 - - - - - - - 17.8 1021.7 0.0
11/02:30pm ESE 11 13 - - - - - - - 17.9 1022.2 0.0
11/02:00pm ESE 10 12 - - - - - - - 18.5 1022.9 0.0
11/01:30pm SE 10 12 - - - - - - - 19.3 1023.2 0.0
11/01:00pm SE 11 13 - - - - - - - 19.6 1023.8 0.0
11/12:30pm SSE 12 14 - - - - - - - 19.7 1024.2 0.0
11/12:00pm SSE 11 15 - - - - - - - 19.5 1024.6 0.0
11/11:30am SSE 13 15 - - - - - - - 19.1 1025.0 0.0
11/11:00am SSE 13 16 - - - - - - - 19.1 1025.0 0.0
11/10:30am SSE 11 13 - - - - - - - 19.0 1025.3 0.0
11/10:00am S 10 12 - - - - - - - 18.8 1025.4 0.0
11/09:30am SSW 9 14 - - - - - - - 17.9 1025.8 0.0
11/09:00am SSW 9 13 - - - - - - - 17.1 1025.6 0.0
11/08:30am SSW 9 14 - - - - - - - 15.9 1025.6 0.0
11/08:00am SSW 11 16 - - - - - - - 14.7 1025.7 0.0
11/07:30am SSW 10 15 - - - - - - - 13.8 1025.0 0.0
11/07:00am SW 7 11 - - - - - - - 11.4 1025.2 0.0
11/06:30am SW 7 10 - - - - - - - 11.3 1025.1 0.0
11/06:00am SW 8 11 - - - - - - - 11.6 1024.7 0.0
11/05:30am SW 9 12 - - - - - - - 12.0 1024.4 0.0
11/05:00am SW 7 10 - - - - - - - 12.5 1024.1 0.0
11/04:30am SSW 6 9 - - - - - - - 12.0 1023.9 0.0
11/04:00am SSW 7 8 - - - - - - - 10.9 1023.6 0.0
11/03:30am SW 7 9 - - - - - - - 11.4 1024.0 0.0
11/03:00am SW 6 9 - - - - - - - 11.7 1023.8 0.0
11/02:30am SW 7 9 - - - - - - - 11.3 1023.8 0.0
11/02:00am SW 7 9 - - - - - - - 11.4 1024.0 0.0
11/01:30am SW 7 8 - - - - - - - 11.7 1024.3 0.0
11/01:00am SW 7 9 - - - - - - - 12.1 1024.5 0.0
11/12:30am SSW 8 11 - - - - - - - 12.1 1024.8 0.0
11/12:00am SW 7 10 - - - - - - - 12.3 1024.8 0.0
 
Date/Time
EST
Wind Sea
Height
m
Swell Vis
km
Cloud Weather Temp
°C
Press
MSL
hPa
Rain since
9am
mm
Dir  Spd
kts
Gust
kts
Height
m
Period
s
Dir
10/11:30pm SSW 7 10 - - - - - - - 12.8 1024.8 0.0
10/11:00pm SSW 7 11 - - - - - - - 12.9 1024.9 0.0
10/10:30pm S 9 14 - - - - - - - 13.7 1025.1 0.0
10/10:00pm SSW 7 9 - - - - - - - 13.9 1025.4 0.0
10/09:30pm S 13 17 - - - - - - - 14.6 1025.5 0.0
10/09:00pm S 18 21 - - - - - - - 15.3 1025.3 0.0
10/08:30pm SSE 18 21 - - - - - - - 15.9 1025.1 0.0

Other formats

Comma delimited format used in spreadsheet applications
http://www.bom.gov.au/fwo/IDQ60701/IDQ60701.95591.axf

JavaScript Object Notation format (JSON) in row-major order
http://www.bom.gov.au/fwo/IDQ60701/IDQ60701.95591.json

Data quality

Most of these data are generated automatically and are frequently updated. Quality checks on data are not normally performed. It is possible for incorrect values to appear. Refer to information at About Latest Weather Observations and please check the disclaimer before using these data.